Time;durP1;ratioP1;P1;durP2;ratioP2;P2;SDS_P1;SDS_P2;PMS_P1;PMS_P2;Temp;Humidity;BMP_temperature;BMP_pressure;BME280_temperature;BME280_humidity;BME280_pressure;Samples;Min_cycle;Max_cycle;Signal;HPM_P1;HPM_P2
2023/02/23 00:01:25;;;;;;;20.90;12.83;;;8.20;99.90;;;;;;5072545;28;20185;-86
2023/02/23 00:03:53;;;;;;;15.20;8.30;;;8.20;99.90;;;;;;5054036;28;20232;-85
2023/02/23 00:06:19;;;;;;;16.23;8.40;;;8.20;99.90;;;;;;5050667;28;20464;-87
2023/02/23 00:08:46;;;;;;;19.07;9.00;;;8.20;99.90;;;;;;5050512;28;20713;-86
2023/02/23 00:11:13;;;;;;;11.33;5.17;;;8.20;99.90;;;;;;5034489;28;20213;-86
2023/02/23 00:13:41;;;;;;;9.83;7.30;;;8.20;99.90;;;;;;5034241;28;20182;-87
2023/02/23 00:16:17;;;;;;;11.00;9.53;;;8.20;99.90;;;;;;5033965;28;20218;-86
2023/02/23 00:18:49;;;;;;;24.60;11.87;;;8.20;99.90;;;;;;5050357;28;20222;-85
2023/02/23 00:21:18;;;;;;;22.37;9.17;;;8.20;99.90;;;;;;5050643;28;20222;-85
2023/02/23 00:23:48;;;;;;;18.80;10.97;;;8.20;99.90;;;;;;5050459;28;20238;-86
2023/02/23 00:26:14;;;;;;;13.27;7.53;;;8.30;99.90;;;;;;5050387;28;20214;-86
2023/02/23 00:28:42;;;;;;;17.27;9.10;;;8.20;99.90;;;;;;5050746;28;20213;-86
2023/02/23 00:31:11;;;;;;;18.77;7.77;;;8.20;99.90;;;;;;5050253;28;20241;-87
2023/02/23 00:33:37;;;;;;;19.03;9.80;;;8.20;99.90;;;;;;5017529;28;20342;-85
2023/02/23 00:36:05;;;;;;;13.23;8.40;;;8.20;99.90;;;;;;5050274;28;20312;-85
2023/02/23 00:38:35;;;;;;;20.37;9.23;;;8.20;99.90;;;;;;5050319;28;20247;-85
2023/02/23 00:41:05;;;;;;;10.83;7.23;;;8.20;99.90;;;;;;5050325;28;20190;-86
2023/02/23 00:43:48;;;;;;;15.33;7.23;;;8.20;99.90;;;;;;5034187;28;20190;-88
2023/02/23 00:46:20;;;;;;;17.03;9.43;;;8.10;99.90;;;;;;5049415;28;20225;-88
2023/02/23 00:48:47;;;;;;;15.97;7.87;;;8.10;99.90;;;;;;5047920;28;20229;-87
2023/02/23 00:51:15;;;;;;;15.97;8.23;;;8.10;99.90;;;;;;5048258;28;20221;-86
2023/02/23 00:53:43;;;;;;;18.37;9.13;;;8.10;99.90;;;;;;5031106;28;20242;-89
2023/02/23 00:56:10;;;;;;;12.77;8.47;;;8.10;99.90;;;;;;5031386;28;20230;-86
2023/02/23 00:58:36;;;;;;;8.67;5.90;;;8.10;99.90;;;;;;5047974;28;20231;-85
2023/02/23 01:01:06;;;;;;;12.97;7.13;;;8.10;99.90;;;;;;5048674;28;20792;-87
2023/02/23 01:03:31;;;;;;;19.37;11.10;;;8.10;99.90;;;;;;5047969;28;20717;-85
2023/02/23 01:06:05;;;;;;;9.90;7.17;;;8.10;99.90;;;;;;5034164;28;20239;-85
2023/02/23 01:08:35;;;;;;;14.93;9.03;;;8.10;99.90;;;;;;5050813;28;20241;-87
2023/02/23 01:11:27;;;;;;;5.70;3.73;;;8.10;99.90;;;;;;5051332;28;20178;-85
2023/02/23 01:13:55;;;;;;;9.67;5.40;;;8.10;99.90;;;;;;5048928;28;20795;-84
2023/02/23 01:16:27;;;;;;;6.47;4.37;;;8.10;99.90;;;;;;5070991;28;20185;-86
2023/02/23 01:18:54;;;;;;;10.03;7.23;;;8.10;99.90;;;;;;5070434;28;20221;-86
2023/02/23 01:21:28;;;;;;;18.17;7.80;;;8.10;99.90;;;;;;5070467;28;20316;-86
2023/02/23 01:23:54;;;;;;;9.10;5.53;;;8.10;99.90;;;;;;5052697;28;20606;-87
2023/02/23 01:26:26;;;;;;;13.70;7.53;;;8.10;99.90;;;;;;5052893;28;20268;-86
2023/02/23 01:28:55;;;;;;;20.77;8.97;;;8.10;99.90;;;;;;5052914;28;20208;-87
2023/02/23 01:31:22;;;;;;;13.53;7.63;;;8.10;99.90;;;;;;5052922;28;20209;-85
2023/02/23 01:33:59;;;;;;;5.63;3.87;;;8.20;99.90;;;;;;5051262;28;20663;-86
2023/02/23 01:36:27;;;;;;;25.80;9.70;;;8.20;99.90;;;;;;5068413;28;20216;-86
2023/02/23 01:38:55;;;;;;;7.90;6.20;;;8.10;99.90;;;;;;5050478;28;20518;-89
2023/02/23 01:41:22;;;;;;;10.80;5.17;;;8.10;99.90;;;;;;5051324;28;20217;-86
2023/02/23 01:43:54;;;;;;;5.50;5.07;;;8.10;99.90;;;;;;5051760;28;20195;-85
2023/02/23 01:46:20;;;;;;;9.00;7.90;;;8.10;99.90;;;;;;5069158;28;20217;-87
2023/02/23 01:48:47;;;;;;;8.97;4.97;;;8.10;99.90;;;;;;5033499;28;20213;-86
2023/02/23 01:51:19;;;;;;;9.00;4.60;;;8.10;99.90;;;;;;5050270;28;20761;-86
2023/02/23 01:54:14;;;;;;;9.37;5.60;;;8.00;99.90;;;;;;5050380;28;20299;-89
2023/02/23 01:56:44;;;;;;;6.10;4.97;;;8.00;99.90;;;;;;5038483;28;20240;-86
2023/02/23 01:59:12;;;;;;;4.83;4.17;;;8.00;99.90;;;;;;5050202;28;20264;-85
2023/02/23 02:01:42;;;;;;;7.43;6.47;;;8.00;99.90;;;;;;5034569;28;20205;-88
2023/02/23 02:04:15;;;;;;;6.00;3.93;;;8.00;99.90;;;;;;5051094;28;20278;-86
2023/02/23 02:06:44;;;;;;;4.33;3.87;;;8.00;99.90;;;;;;5035553;28;20245;-86
2023/02/23 02:09:18;;;;;;;5.43;4.97;;;7.90;99.90;;;;;;5051696;28;20241;-86
2023/02/23 02:11:45;;;;;;;9.13;4.80;;;7.90;99.90;;;;;;5051767;28;20216;-86
2023/02/23 02:14:19;;;;;;;14.27;8.17;;;7.90;99.90;;;;;;5052247;28;20178;-86
2023/02/23 02:17:10;;;;;;;7.63;6.80;;;7.80;99.90;;;;;;5068877;28;20170;-88
2023/02/23 02:19:48;;;;;;;8.73;6.27;;;7.80;99.90;;;;;;5051473;28;20205;-86
2023/02/23 02:22:53;;;;;;;10.23;7.87;;;7.80;99.90;;;;;;5051628;28;20213;-86
2023/02/23 02:25:49;;;;;;;8.97;7.20;;;7.90;99.90;;;;;;4980442;28;20764;-88
2023/02/23 02:29:13;;;;;;;12.90;7.67;;;7.90;99.90;;;;;;5050669;28;20634;-87
2023/02/23 02:32:01;;;;;;;13.03;8.43;;;8.00;99.90;;;;;;4966381;28;20213;-86
2023/02/23 02:35:28;;;;;;;10.80;9.60;;;8.00;99.90;;;;;;4966662;28;20247;-86
2023/02/23 02:38:32;;;;;;;8.93;8.00;;;8.00;99.90;;;;;;5014604;28;20636;-89
2023/02/23 02:41:03;;;;;;;20.83;8.37;;;8.10;99.90;;;;;;5049656;28;20622;-85
2023/02/23 02:43:39;;;;;;;9.90;8.00;;;8.10;99.90;;;;;;5050695;28;20611;-85
2023/02/23 02:46:25;;;;;;;13.87;7.23;;;8.10;99.90;;;;;;5049722;28;20213;-86
2023/02/23 02:49:16;;;;;;;9.87;8.83;;;8.10;99.90;;;;;;5049018;28;20225;-90
2023/02/23 02:51:52;;;;;;;7.50;6.37;;;8.10;99.90;;;;;;5049285;28;20735;-88
2023/02/23 02:54:28;;;;;;;16.93;8.83;;;8.10;99.90;;;;;;5049992;28;20330;-89
2023/02/23 02:56:59;;;;;;;10.17;6.93;;;8.10;99.90;;;;;;5049550;28;20235;-86
2023/02/23 04:19:11;;;;;;;9.40;5.80;;;7.90;99.90;;;;;;5052940;28;20220;-86
2023/02/23 04:21:37;;;;;;;9.13;4.60;;;7.90;99.90;;;;;;5052996;28;20225;-86
2023/02/23 04:24:03;;;;;;;6.40;5.47;;;7.80;99.90;;;;;;5053455;28;20659;-86
2023/02/23 04:26:29;;;;;;;6.80;3.77;;;7.80;99.90;;;;;;5037388;28;20274;-86
2023/02/23 04:28:55;;;;;;;4.43;3.30;;;7.80;99.90;;;;;;5021517;28;20177;-86
2023/02/23 04:31:23;;;;;;;6.00;4.63;;;7.70;99.90;;;;;;5037029;28;20596;-85
2023/02/23 04:33:49;;;;;;;4.07;2.47;;;7.70;99.90;;;;;;5036355;28;20221;-87
2023/02/23 04:36:16;;;;;;;11.70;4.33;;;7.80;99.90;;;;;;5053589;28;20692;-87
2023/02/23 04:38:42;;;;;;;19.67;4.87;;;7.80;99.90;;;;;;5037229;28;20224;-86
2023/02/23 04:41:08;;;;;;;3.50;3.30;;;7.80;99.90;;;;;;5071144;28;20690;-86
2023/02/23 04:43:34;;;;;;;6.47;2.60;;;7.80;99.90;;;;;;5037729;28;20182;-88
2023/02/23 04:46:00;;;;;;;17.57;3.73;;;7.90;99.90;;;;;;5071439;28;20697;-86
2023/02/23 04:48:26;;;;;;;4.50;4.13;;;7.90;99.90;;;;;;5053255;28;20232;-86
2023/02/23 04:50:53;;;;;;;10.37;5.17;;;7.90;99.90;;;;;;5053668;28;20209;-87
2023/02/23 04:53:18;;;;;;;7.73;5.17;;;7.90;99.90;;;;;;5036846;28;20182;-85
2023/02/23 04:55:44;;;;;;;10.27;5.20;;;8.00;99.90;;;;;;5037132;28;20599;-86
2023/02/23 04:58:15;;;;;;;14.70;6.83;;;8.00;99.90;;;;;;5053258;28;20965;-87
2023/02/23 05:00:40;;;;;;;12.07;4.60;;;8.00;99.90;;;;;;5053108;28;20308;-86
2023/02/23 05:03:06;;;;;;;11.33;6.30;;;8.00;99.90;;;;;;5019999;28;20347;-86
2023/02/23 05:05:32;;;;;;;13.63;6.23;;;8.00;99.90;;;;;;5036603;28;20224;-88
2023/02/23 05:07:58;;;;;;;5.70;5.20;;;7.90;99.90;;;;;;5071160;28;20233;-86
2023/02/23 05:10:23;;;;;;;4.27;3.87;;;7.90;99.90;;;;;;5020161;28;20224;-86
2023/02/23 05:12:49;;;;;;;5.20;4.50;;;7.80;99.90;;;;;;5019972;28;20220;-86
2023/02/23 05:15:15;;;;;;;8.50;3.70;;;7.80;99.90;;;;;;5019647;28;20208;-87
2023/02/23 05:17:41;;;;;;;5.73;4.53;;;7.80;99.90;;;;;;5052866;28;20728;-88
2023/02/23 05:20:10;;;;;;;12.80;4.83;;;7.80;99.90;;;;;;5019326;28;20182;-85
2023/02/23 05:22:36;;;;;;;13.30;7.87;;;7.90;99.90;;;;;;5053022;28;20530;-84
2023/02/23 05:25:03;;;;;;;5.67;4.73;;;7.80;99.90;;;;;;5069862;28;20213;-85
2023/02/23 05:27:31;;;;;;;8.07;5.10;;;7.80;99.90;;;;;;5035712;28;20307;-87
2023/02/23 05:29:57;;;;;;;11.13;5.80;;;7.80;99.90;;;;;;5052231;28;20300;-89
2023/02/23 05:32:23;;;;;;;8.43;4.70;;;7.90;99.90;;;;;;5035662;28;20300;-86
2023/02/23 05:34:49;;;;;;;8.03;4.83;;;7.80;99.90;;;;;;5036488;28;20185;-86
2023/02/23 05:37:14;;;;;;;13.10;6.57;;;7.80;99.90;;;;;;5035595;28;20241;-85
2023/02/23 05:39:40;;;;;;;5.50;2.77;;;7.80;99.90;;;;;;5035876;28;20241;-87
2023/02/23 05:42:06;;;;;;;8.87;3.63;;;7.90;99.90;;;;;;5035398;28;20682;-86
2023/02/23 05:44:31;;;;;;;12.60;7.20;;;7.90;99.90;;;;;;5070253;28;20213;-85
2023/02/23 05:46:57;;;;;;;7.30;4.20;;;7.90;99.90;;;;;;5036058;28;20245;-87
2023/02/23 05:49:23;;;;;;;7.53;3.80;;;7.90;99.90;;;;;;5052429;28;20227;-85
2023/02/23 05:51:49;;;;;;;8.63;5.87;;;7.90;99.90;;;;;;5068859;28;20747;-87
2023/02/23 05:54:14;;;;;;;7.17;4.57;;;7.90;99.90;;;;;;5050839;28;20224;-86
2023/02/23 05:56:41;;;;;;;7.17;6.20;;;7.90;99.90;;;;;;5050778;28;20770;-87
2023/02/23 05:59:07;;;;;;;8.87;6.87;;;7.90;99.90;;;;;;5051788;28;20181;-86
2023/02/23 06:01:33;;;;;;;7.60;4.27;;;7.80;99.90;;;;;;5019716;28;20250;-85
2023/02/23 06:03:58;;;;;;;4.60;3.97;;;7.80;99.90;;;;;;5052035;28;20213;-89
2023/02/23 06:06:24;;;;;;;11.63;5.03;;;7.80;99.90;;;;;;5035211;28;20232;-86
2023/02/23 06:08:54;;;;;;;4.13;3.87;;;7.80;99.90;;;;;;5035420;28;20231;-87
2023/02/23 06:11:20;;;;;;;7.97;5.57;;;7.80;99.90;;;;;;5051774;28;20173;-87
2023/02/23 06:13:45;;;;;;;12.33;4.77;;;7.80;99.90;;;;;;5035900;28;20264;-86
2023/02/23 06:16:11;;;;;;;4.97;3.60;;;7.80;99.90;;;;;;5018904;28;20233;-86
2023/02/23 06:18:37;;;;;;;6.13;4.37;;;7.80;99.90;;;;;;5018573;28;20798;-87
2023/02/23 06:21:03;;;;;;;7.93;3.00;;;7.80;99.90;;;;;;5034849;28;20232;-84
2023/02/23 06:23:29;;;;;;;4.13;3.30;;;7.80;99.90;;;;;;5034954;28;20219;-86
2023/02/23 06:25:57;;;;;;;8.47;4.37;;;7.80;99.90;;;;;;5036114;28;20187;-85
2023/02/23 06:28:23;;;;;;;7.90;5.03;;;7.80;99.90;;;;;;5051639;28;20231;-85
2023/02/23 06:30:51;;;;;;;14.00;4.87;;;7.80;99.90;;;;;;5051718;28;20221;-87
2023/02/23 06:33:17;;;;;;;6.87;3.20;;;7.90;99.90;;;;;;5035144;28;20224;-86
2023/02/23 06:35:44;;;;;;;7.03;6.23;;;7.90;99.90;;;;;;5035173;28;20304;-86
2023/02/23 06:38:10;;;;;;;9.73;3.43;;;7.90;99.90;;;;;;5035110;28;20716;-86
2023/02/23 06:40:37;;;;;;;10.33;5.87;;;7.90;99.90;;;;;;5052488;28;20268;-86
2023/02/23 06:43:04;;;;;;;6.53;3.90;;;7.90;99.90;;;;;;5051470;28;20217;-88
2023/02/23 06:45:30;;;;;;;11.33;4.27;;;7.90;99.90;;;;;;5034844;28;20625;-87
2023/02/23 06:47:57;;;;;;;11.97;5.30;;;7.90;99.90;;;;;;5051274;28;20312;-86
2023/02/23 06:50:23;;;;;;;13.27;5.43;;;7.90;99.90;;;;;;5069144;28;20804;-86
2023/02/23 06:52:49;;;;;;;8.90;5.23;;;7.90;99.90;;;;;;5035473;28;20207;-87
2023/02/23 06:55:15;;;;;;;7.60;3.90;;;8.00;99.90;;;;;;5034676;28;20221;-88
2023/02/23 06:57:42;;;;;;;7.67;5.13;;;8.00;99.90;;;;;;5036261;28;20636;-88
2023/02/23 07:00:13;;;;;;;10.93;5.53;;;8.00;99.90;;;;;;5054992;28;20303;-85
2023/02/23 07:02:40;;;;;;;11.23;6.73;;;8.10;99.90;;;;;;5054836;28;20205;-85
2023/02/23 07:05:07;;;;;;;6.63;4.63;;;8.00;99.90;;;;;;5039066;28;20204;-86
2023/02/23 07:07:33;;;;;;;5.80;4.60;;;8.10;99.90;;;;;;5073328;28;20225;-89
2023/02/23 07:09:58;;;;;;;4.80;4.00;;;8.10;99.90;;;;;;5038572;28;20231;-86
2023/02/23 07:12:24;;;;;;;6.13;4.63;;;8.10;99.90;;;;;;5055375;28;20292;-86
2023/02/23 07:14:50;;;;;;;4.77;4.20;;;8.10;99.90;;;;;;5072865;28;20810;-86
2023/02/23 07:17:16;;;;;;;8.37;5.77;;;8.10;99.90;;;;;;5055270;28;20185;-87
2023/02/23 07:19:43;;;;;;;9.17;5.53;;;8.20;99.90;;;;;;5055738;28;20182;-90
2023/02/23 07:22:09;;;;;;;5.37;4.13;;;8.20;99.90;;;;;;5055124;28;20224;-85
2023/02/23 07:24:35;;;;;;;6.87;4.80;;;8.10;99.90;;;;;;5038620;28;20213;-86
2023/02/23 07:27:00;;;;;;;14.50;5.70;;;8.20;99.90;;;;;;5055114;28;20701;-86
2023/02/23 07:29:29;;;;;;;5.20;3.97;;;8.20;99.90;;;;;;5072575;28;20224;-85
2023/02/23 07:31:54;;;;;;;8.87;3.43;;;8.20;99.90;;;;;;5039631;28;20215;-86
2023/02/23 07:34:20;;;;;;;6.07;3.67;;;8.10;99.90;;;;;;5054934;28;20237;-86
2023/02/23 07:36:46;;;;;;;5.53;5.00;;;8.10;99.90;;;;;;5037931;28;20225;-85
2023/02/23 07:39:12;;;;;;;5.77;4.10;;;8.10;99.90;;;;;;5054220;28;20217;-87
2023/02/23 07:41:38;;;;;;;7.23;4.67;;;8.10;99.90;;;;;;5054596;28;20239;-85
2023/02/23 07:44:04;;;;;;;10.10;6.07;;;8.20;99.90;;;;;;5054774;28;20702;-86
2023/02/23 07:46:30;;;;;;;9.13;3.63;;;8.20;99.90;;;;;;5055018;28;20268;-88
2023/02/23 07:48:55;;;;;;;10.23;3.30;;;8.20;99.90;;;;;;5020944;28;20240;-86
2023/02/23 07:51:21;;;;;;;6.23;4.57;;;8.10;99.90;;;;;;5037838;28;20304;-88
2023/02/23 07:53:47;;;;;;;10.13;5.10;;;8.20;99.90;;;;;;5072096;28;20210;-85
2023/02/23 07:56:13;;;;;;;7.07;5.60;;;8.10;99.90;;;;;;5054690;28;20215;-85
2023/02/23 07:58:41;;;;;;;9.23;4.73;;;8.10;99.90;;;;;;5072605;28;20189;-86
2023/02/23 08:01:08;;;;;;;6.60;4.17;;;8.10;99.90;;;;;;5072499;28;20680;-87
2023/02/23 08:03:34;;;;;;;6.50;4.90;;;8.00;99.90;;;;;;5054455;28;20293;-87
2023/02/23 08:06:00;;;;;;;7.73;5.83;;;8.10;99.90;;;;;;5054359;28;20620;-87
2023/02/23 08:08:26;;;;;;;6.63;4.60;;;8.00;99.90;;;;;;5053315;28;20248;-89
2023/02/23 08:11:03;;;;;;;5.77;3.30;;;8.00;99.90;;;;;;5038040;28;20638;-89
2023/02/23 08:13:30;;;;;;;13.80;7.07;;;8.10;99.90;;;;;;5054424;28;20216;-86
2023/02/23 08:15:57;;;;;;;5.60;3.17;;;8.00;99.90;;;;;;5071963;28;20291;-86
2023/02/23 08:18:23;;;;;;;10.13;3.37;;;8.00;99.90;;;;;;5021180;28;20213;-85
2023/02/23 08:20:48;;;;;;;4.73;4.20;;;8.10;99.90;;;;;;5037291;28;20277;-85
2023/02/23 08:23:16;;;;;;;5.83;2.90;;;8.10;99.90;;;;;;5036960;28;20281;-85
2023/02/23 08:25:42;;;;;;;4.70;3.07;;;8.10;99.90;;;;;;5037794;28;20323;-84
2023/02/23 08:28:08;;;;;;;5.60;3.80;;;8.10;99.90;;;;;;5071194;28;20312;-87
2023/02/23 08:30:34;;;;;;;4.90;3.50;;;8.10;99.90;;;;;;5053439;28;20575;-84
2023/02/23 08:33:00;;;;;;;5.33;2.73;;;8.20;99.90;;;;;;5037102;28;20213;-87
2023/02/23 08:35:26;;;;;;;10.07;6.10;;;8.20;99.90;;;;;;5071254;28;20217;-85
2023/02/23 08:37:52;;;;;;;7.93;4.00;;;8.20;99.90;;;;;;5053704;28;20194;-86
2023/02/23 08:40:19;;;;;;;6.37;3.53;;;8.20;99.90;;;;;;5053583;28;20217;-87
2023/02/23 08:42:47;;;;;;;5.57;4.90;;;8.30;99.90;;;;;;5053325;28;20241;-86
2023/02/23 08:45:16;;;;;;;10.83;5.07;;;8.30;99.90;;;;;;5053324;28;20228;-88
2023/02/23 08:47:42;;;;;;;5.83;5.30;;;8.30;99.90;;;;;;5037073;28;20225;-85
2023/02/23 08:50:09;;;;;;;8.70;6.07;;;8.40;99.90;;;;;;5036645;28;20186;-87
2023/02/23 08:52:36;;;;;;;6.77;4.17;;;8.40;99.90;;;;;;5070726;28;20637;-87
2023/02/23 08:55:02;;;;;;;8.07;4.63;;;8.50;99.90;;;;;;5020357;28;20221;-85
2023/02/23 08:57:31;;;;;;;4.27;3.90;;;8.50;99.90;;;;;;5070899;28;20661;-88
2023/02/23 08:59:57;;;;;;;5.87;3.40;;;8.50;99.90;;;;;;5053060;28;20216;-88
2023/02/23 09:02:23;;;;;;;5.10;4.70;;;8.50;99.90;;;;;;5053158;28;20221;-85
2023/02/23 09:04:49;;;;;;;6.13;5.07;;;8.50;99.90;;;;;;5053785;28;20184;-89
2023/02/23 09:07:16;;;;;;;8.30;3.80;;;8.40;99.90;;;;;;5019329;28;20248;-85
2023/02/23 09:09:42;;;;;;;6.13;4.87;;;8.50;99.90;;;;;;5052953;28;20304;-87
2023/02/23 09:12:08;;;;;;;9.97;6.03;;;8.50;99.90;;;;;;5019601;28;20812;-87
2023/02/23 09:14:35;;;;;;;6.73;4.27;;;8.50;99.90;;;;;;5051586;28;20243;-87
2023/02/23 09:17:01;;;;;;;6.47;5.83;;;8.60;99.90;;;;;;5053298;28;20193;-89
2023/02/23 09:19:27;;;;;;;4.73;3.80;;;8.60;99.90;;;;;;5035847;28;20240;-86
2023/02/23 09:21:53;;;;;;;11.93;3.53;;;8.70;99.90;;;;;;5035209;28;20775;-86
2023/02/23 09:24:20;;;;;;;11.37;5.17;;;8.60;99.90;;;;;;5018363;28;20701;-84
2023/02/23 09:26:47;;;;;;;18.73;5.93;;;8.70;99.90;;;;;;5034449;28;20223;-85
2023/02/23 09:29:12;;;;;;;8.07;6.70;;;8.70;99.90;;;;;;5035108;28;20205;-87
2023/02/23 09:31:38;;;;;;;3.80;2.50;;;8.70;99.90;;;;;;5052776;28;20262;-86
2023/02/23 09:34:04;;;;;;;12.57;8.33;;;8.60;99.90;;;;;;5069996;28;20728;-86
2023/02/23 09:36:30;;;;;;;13.27;7.33;;;8.60;99.90;;;;;;5035721;28;20307;-87
2023/02/23 09:38:57;;;;;;;6.57;5.70;;;8.60;99.90;;;;;;5052351;28;20220;-88
2023/02/23 09:41:26;;;;;;;11.50;7.17;;;8.60;99.90;;;;;;5069701;28;20208;-87
2023/02/23 09:44:06;;;;;;;7.53;5.83;;;8.60;99.90;;;;;;5051818;28;20630;-88
2023/02/23 09:46:40;;;;;;;10.33;4.50;;;8.60;99.90;;;;;;5068836;28;20197;-87
2023/02/23 09:49:14;;;;;;;15.13;8.73;;;8.60;99.90;;;;;;5052365;28;20248;-88
2023/02/23 09:51:45;;;;;;;19.67;6.90;;;8.60;99.90;;;;;;5052350;28;20252;-90
2023/02/23 09:54:12;;;;;;;9.87;8.33;;;8.60;99.90;;;;;;5069848;28;20894;-88
2023/02/23 09:56:46;;;;;;;15.30;5.77;;;8.80;99.90;;;;;;5052009;28;20213;-88
2023/02/23 09:59:15;;;;;;;27.97;11.53;;;8.80;99.90;;;;;;5051629;28;20447;-88
2023/02/23 10:01:46;;;;;;;31.13;11.27;;;8.80;99.90;;;;;;5069977;28;20187;-89
2023/02/23 10:04:24;;;;;;;18.33;8.83;;;8.90;99.90;;;;;;5050749;28;20228;-90
2023/02/23 10:07:29;;;;;;;11.47;7.37;;;8.80;99.90;;;;;;5050057;28;20216;-87
2023/02/23 10:10:30;;;;;;;22.90;11.63;;;8.80;99.90;;;;;;5063618;28;20236;-88
2023/02/23 10:13:22;;;;;;;17.33;7.93;;;8.80;99.90;;;;;;5050711;28;20244;-89
2023/02/23 10:16:15;;;;;;;17.33;9.47;;;8.90;99.90;;;;;;5050685;28;20240;-91
2023/02/23 10:18:48;;;;;;;13.20;8.57;;;8.90;99.90;;;;;;5068520;28;20217;-89
2023/02/23 10:21:19;;;;;;;26.63;10.47;;;9.00;99.90;;;;;;5068220;28;20217;-87
2023/02/23 10:23:53;;;;;;;15.50;7.33;;;9.00;99.90;;;;;;5051085;28;20225;-86
2023/02/23 10:26:26;;;;;;;29.33;7.90;;;9.00;99.90;;;;;;5069197;28;20671;-88
2023/02/23 10:28:56;;;;;;;24.07;12.57;;;9.00;99.90;;;;;;5070019;28;20201;-87
2023/02/23 10:31:36;;;;;;;20.17;10.53;;;9.00;99.90;;;;;;5050923;28;20221;-87
2023/02/23 10:34:10;;;;;;;17.00;8.13;;;9.00;99.90;;;;;;5051541;28;20213;-87
2023/02/23 10:36:40;;;;;;;7.73;6.60;;;9.00;99.90;;;;;;5051436;28;20796;-86
2023/02/23 10:39:07;;;;;;;15.40;8.83;;;9.00;99.90;;;;;;5050793;28;20236;-87
2023/02/23 10:41:35;;;;;;;38.43;13.00;;;8.90;99.90;;;;;;5049356;28;20213;-86
2023/02/23 10:44:02;;;;;;;16.37;7.03;;;8.90;99.90;;;;;;5050128;28;20189;-90
2023/02/23 10:46:38;;;;;;;20.77;10.10;;;8.80;99.90;;;;;;5049911;28;20232;-87
2023/02/23 10:49:06;;;;;;;14.47;6.60;;;8.80;99.90;;;;;;5067743;28;20268;-87
2023/02/23 10:51:37;;;;;;;7.30;5.00;;;8.90;99.90;;;;;;5049263;28;20241;-91
2023/02/23 10:54:36;;;;;;;11.57;6.47;;;8.80;99.90;;;;;;5049903;28;20209;-90
2023/02/23 10:57:03;;;;;;;22.30;8.50;;;8.80;99.90;;;;;;5067191;28;20709;-91
2023/02/23 10:59:30;;;;;;;27.13;7.00;;;8.80;99.90;;;;;;5033640;28;20213;-89
2023/02/23 11:01:56;;;;;;;16.90;8.83;;;8.70;99.90;;;;;;5051762;28;20616;-89
2023/02/23 11:04:26;;;;;;;15.47;9.27;;;8.70;99.90;;;;;;5051607;28;20213;-89
2023/02/23 11:07:30;;;;;;;11.10;6.43;;;8.80;99.90;;;;;;5069238;28;20240;-88
2023/02/23 11:09:58;;;;;;;7.07;4.90;;;8.80;99.90;;;;;;4952282;28;20248;-88
2023/02/23 11:12:39;;;;;;;5.47;4.97;;;8.70;99.90;;;;;;5018242;28;20223;-87
2023/02/23 11:15:28;;;;;;;10.13;5.17;;;8.80;99.90;;;;;;5069267;28;20212;-86
2023/02/23 11:18:04;;;;;;;1.73;1.63;;;8.80;99.90;;;;;;5051441;28;20210;-87
2023/02/23 11:20:34;;;;;;;2.97;2.77;;;8.70;99.90;;;;;;5051162;28;20204;-87
2023/02/23 11:23:22;;;;;;;1.50;1.40;;;8.60;99.90;;;;;;5051947;28;20173;-87
2023/02/23 11:25:54;;;;;;;4.60;2.40;;;8.60;99.90;;;;;;5035210;28;20216;-85
2023/02/23 11:28:40;;;;;;;0.77;0.50;;;8.60;99.90;;;;;;5068850;28;20229;-87
2023/02/23 11:31:11;;;;;;;4.53;1.07;;;8.50;99.90;;;;;;5050775;28;20221;-88
2023/02/23 11:33:38;;;;;;;3.40;0.60;;;8.50;99.90;;;;;;5050938;28;20550;-86
2023/02/23 11:36:16;;;;;;;0.43;0.43;;;8.40;99.90;;;;;;5068444;28;20307;-89
2023/02/23 11:38:44;;;;;;;3.83;0.50;;;8.40;99.90;;;;;;5051109;28;20229;-88
2023/02/23 11:41:20;;;;;;;6.53;1.10;;;8.50;99.90;;;;;;5068775;28;20820;-85
2023/02/23 11:43:55;;;;;;;0.57;0.57;;;8.30;99.90;;;;;;5070521;28;20231;-85
2023/02/23 11:46:21;;;;;;;3.77;2.03;;;8.40;99.90;;;;;;5054383;28;20216;-86
2023/02/23 11:49:12;;;;;;;1.97;1.17;;;8.40;99.90;;;;;;5071417;28;20244;-85
2023/02/23 11:51:40;;;;;;;1.63;0.60;;;8.30;99.90;;;;;;5053830;28;20217;-85
2023/02/23 11:54:15;;;;;;;1.00;0.97;;;8.40;99.90;;;;;;5071880;28;20213;-87
2023/02/23 11:56:51;;;;;;;15.20;1.83;;;8.40;99.90;;;;;;5072199;28;20296;-86
2023/02/23 11:59:20;;;;;;;4.77;0.67;;;8.40;99.90;;;;;;5054494;28;20219;-88
2023/02/23 12:01:49;;;;;;;4.67;2.80;;;8.40;99.90;;;;;;5054594;28;20653;-86
2023/02/23 12:04:37;;;;;;;7.87;2.07;;;8.40;99.90;;;;;;5054802;28;20250;-89
2023/02/23 12:07:45;;;;;;;5.13;1.53;;;8.30;99.90;;;;;;5054538;28;20221;-87
2023/02/23 12:10:20;;;;;;;6.83;0.63;;;8.30;99.90;;;;;;5054044;28;20674;-85
2023/02/23 12:13:11;;;;;;;1.63;1.33;;;8.20;99.90;;;;;;5053914;28;20212;-87
2023/02/23 12:16:03;;;;;;;0.47;0.47;;;8.20;99.90;;;;;;5054765;28;20244;-89
2023/02/23 12:18:58;;;;;;;4.47;2.33;;;8.20;99.90;;;;;;5053789;28;20221;-84
2023/02/23 12:21:41;;;;;;;2.07;1.33;;;8.20;99.90;;;;;;5053981;28;20334;-86
2023/02/23 12:24:13;;;;;;;9.67;4.27;;;8.20;99.90;;;;;;5071710;28;20247;-85
2023/02/23 12:26:51;;;;;;;13.03;1.97;;;8.30;99.90;;;;;;5053815;28;20213;-86
2023/02/23 12:29:36;;;;;;;6.27;1.97;;;8.40;99.90;;;;;;5071673;28;20596;-85
2023/02/23 12:32:11;;;;;;;10.40;1.63;;;8.40;99.90;;;;;;5054319;28;20245;-88
2023/02/23 12:34:51;;;;;;;1.87;0.57;;;8.30;99.90;;;;;;5053542;28;20243;-87
2023/02/23 12:37:26;;;;;;;3.70;1.00;;;8.40;99.90;;;;;;5071643;28;20217;-85
2023/02/23 12:39:57;;;;;;;3.00;1.30;;;8.40;99.90;;;;;;5071133;28;20219;-86
2023/02/23 12:42:42;;;;;;;4.63;0.83;;;8.50;99.90;;;;;;5053556;28;20678;-87
2023/02/23 12:45:22;;;;;;;5.30;2.13;;;8.40;99.90;;;;;;5071536;28;20243;-89
2023/02/23 12:47:54;;;;;;;18.20;2.83;;;8.30;99.90;;;;;;5053200;28;20224;-86
2023/02/23 12:50:32;;;;;;;1.23;1.13;;;8.40;99.90;;;;;;5071652;28;20165;-86
2023/02/23 12:53:21;;;;;;;7.10;2.23;;;8.50;99.90;;;;;;5071646;28;20231;-88
2023/02/23 12:56:06;;;;;;;3.40;2.20;;;8.40;99.90;;;;;;5052126;28;20276;-85
2023/02/23 12:58:34;;;;;;;8.37;1.27;;;8.40;99.90;;;;;;5071229;28;20208;-86
2023/02/23 13:01:05;;;;;;;6.50;1.70;;;8.40;99.90;;;;;;5070865;28;20220;-89
2023/02/23 13:03:56;;;;;;;3.43;1.80;;;8.40;99.90;;;;;;5052979;28;20231;-86
2023/02/23 13:06:35;;;;;;;10.70;1.20;;;8.50;99.90;;;;;;5053047;28;20224;-86
2023/02/23 13:09:39;;;;;;;1.57;1.47;;;8.40;99.90;;;;;;5052692;28;20236;-86
2023/02/23 13:12:18;;;;;;;4.73;1.40;;;8.40;99.90;;;;;;4998352;28;20240;-86
2023/02/23 13:15:07;;;;;;;3.40;3.13;;;8.40;99.90;;;;;;5052445;28;20213;-86
2023/02/23 13:17:41;;;;;;;3.70;3.50;;;8.40;99.90;;;;;;5052232;28;20586;-86
2023/02/23 13:20:21;;;;;;;8.70;3.73;;;8.20;99.90;;;;;;5052815;28;20211;-88
2023/02/23 13:22:59;;;;;;;6.07;1.43;;;8.00;99.90;;;;;;5071112;28;20173;-88
2023/02/23 13:25:40;;;;;;;8.70;1.90;;;7.90;99.90;;;;;;5052787;28;20220;-86
2023/02/23 13:28:19;;;;;;;0.80;0.80;;;7.80;99.90;;;;;;5052651;28;20308;-89
2023/02/23 13:30:46;;;;;;;13.07;1.97;;;7.70;99.90;;;;;;5070192;28;20220;-86
2023/02/23 13:33:33;;;;;;;1.50;1.40;;;7.60;99.90;;;;;;5051878;28;20274;-86
2023/02/23 13:36:01;;;;;;;9.77;1.67;;;7.80;99.90;;;;;;5051583;28;20217;-86
2023/02/23 13:38:31;;;;;;;2.63;0.77;;;7.70;99.90;;;;;;5019491;28;20217;-88
2023/02/23 13:41:20;;;;;;;7.70;1.70;;;7.80;99.90;;;;;;5053192;28;20737;-86
2023/02/23 13:43:53;;;;;;;6.13;1.53;;;7.90;99.90;;;;;;5039603;28;20220;-86
2023/02/23 13:46:58;;;;;;;29.70;3.17;;;7.90;99.90;;;;;;5052660;28;20213;-86
2023/02/23 13:49:51;;;;;;;22.70;1.53;;;7.90;99.90;;;;;;5052537;28;20236;-86
2023/02/23 13:52:38;;;;;;;2.73;2.53;;;7.90;99.90;;;;;;5070404;28;20212;-85
2023/02/23 13:55:27;;;;;;;9.00;2.63;;;7.90;99.90;;;;;;5070280;28;20317;-86
2023/02/23 13:58:03;;;;;;;5.17;1.83;;;7.90;99.90;;;;;;5051929;28;20312;-88
2023/02/23 14:00:30;;;;;;;1.57;1.47;;;7.90;99.90;;;;;;5070839;28;20320;-87
2023/02/23 14:02:56;;;;;;;1.80;1.60;;;8.00;99.90;;;;;;5053839;28;20352;-87
2023/02/23 14:05:30;;;;;;;33.27;2.47;;;7.90;99.90;;;;;;5053869;28;20686;-86
2023/02/23 14:08:01;;;;;;;0.20;0.20;;;7.80;99.90;;;;;;5053748;28;20239;-87
2023/02/23 14:10:44;;;;;;;6.73;1.20;;;7.80;99.90;;;;;;5053017;28;20248;-87
2023/02/23 14:13:12;;;;;;;7.93;1.33;;;7.80;99.90;;;;;;5071033;28;20217;-86
2023/02/23 14:15:39;;;;;;;3.60;1.23;;;7.80;99.90;;;;;;5053273;28;20271;-88
2023/02/23 14:18:19;;;;;;;3.00;1.13;;;7.80;99.90;;;;;;5069629;28;20296;-86
2023/02/23 14:20:53;;;;;;;15.93;3.33;;;7.80;99.90;;;;;;5051758;28;20239;-89
2023/02/23 14:23:19;;;;;;;6.07;2.50;;;7.80;99.90;;;;;;5069489;28;20271;-86
2023/02/23 14:25:51;;;;;;;15.70;1.63;;;7.90;99.90;;;;;;5070438;28;20671;-87
2023/02/23 14:28:26;;;;;;;3.53;0.40;;;7.80;99.90;;;;;;5051560;28;20304;-90
2023/02/23 14:31:02;;;;;;;5.80;2.40;;;7.80;99.90;;;;;;5051189;28;20225;-86
2023/02/23 14:33:47;;;;;;;4.53;4.33;;;7.90;99.90;;;;;;5051085;28;20219;-89
2023/02/23 14:36:25;;;;;;;1.57;1.13;;;7.90;99.90;;;;;;5051307;28;20228;-86
2023/02/23 14:39:05;;;;;;;10.20;0.50;;;7.80;99.90;;;;;;5051262;28;20319;-90